»·PEaware :: N921VN KINW-KPHX

N921VN :: KINW-KPHX

FLIGHT INFORMATION

Flight Status: Arrived
Operator: Privately registered:
United States
More flights under this callsign
Pilot: Kevin M. (7)
Aircraft: CESSNA 172 SKYHAWK
(C172)
More flights by this aircraft type
Origin: KINW Winslow-Lindbergh Regl
United States
Destination: KPHX Phoenix Sky Harbor Intl
United States
More flights between these airports :: More routes between these airports
Route: +INW V95 PXR
File this flight plan on PilotEdge
Remarks: alphabet challenge
Altitude:
(Current/Filed)
10,000ft
Speed:
(Current/Filed)
150kts
Departed: 20-Nov-20 01:00 PM
Arrived: 20-Nov-20 02:17 PM
Distance/Time
Traveled:
115nm/1:16
Distance/Time
To Go:
Arrived

Flight Plot

Page will automatically refresh every two minutes.

Flight plan parsing failed; only flown route is shown


Map Options




Map Legend


Flown Route
Filed Route
Departure Airport
Arrival Airport
Navaid (VOR, NDB)
Fix

Horizontal Profiles

Position Reports

Time Latitude Longitude Heading Altitude Ground
Speed
20-Nov-20 12:49 35.022494 -110.716484 268 4882ft 0kts
20-Nov-20 12:50 35.022494 -110.716484 268 4882ft 0kts
20-Nov-20 12:51 35.022494 -110.716484 268 4882ft 0kts
20-Nov-20 12:52 35.022494 -110.716484 268 4882ft 0kts
20-Nov-20 12:53 35.022494 -110.716484 268 4882ft 0kts
20-Nov-20 12:54 35.022494 -110.716484 268 4882ft 0kts
20-Nov-20 12:55 35.022703 -110.716526 19 4883ft 8kts
20-Nov-20 12:56 35.025783 -110.723009 297 4893ft 7kts
20-Nov-20 12:57 35.028122 -110.727772 330 4902ft 13kts
20-Nov-20 12:58 35.028249 -110.727769 57 4902ft 0kts
20-Nov-20 12:59 35.024759 -110.718357 119 4956ft 73kts
20-Nov-20 13:00 35.013741 -110.699391 203 5471ft 75kts
20-Nov-20 13:01 35.002651 -110.723812 223 5900ft 89kts
20-Nov-20 13:02 34.985435 -110.742064 230 6473ft 83kts
20-Nov-20 13:03 34.972572 -110.767075 236 6943ft 86kts
20-Nov-20 13:04 34.960489 -110.791403 236 7453ft 82kts
20-Nov-20 13:05 34.948907 -110.814525 236 7953ft 78kts
20-Nov-20 13:06 34.937578 -110.837064 237 8379ft 83kts
20-Nov-20 13:07 34.924828 -110.862076 236 8808ft 86kts
20-Nov-20 13:08 34.912578 -110.886118 237 9293ft 80kts
20-Nov-20 13:09 34.902875 -110.908936 251 9747ft 74kts
20-Nov-20 13:10 34.885290 -110.923908 211 10016ft 86kts
20-Nov-20 13:12 34.862011 -110.940925 211 10185ft 110kts
20-Nov-20 13:13 34.832436 -110.962473 211 9837ft 118kts
20-Nov-20 13:14 34.805855 -110.981854 211 10000ft 112kts
20-Nov-20 13:15 34.777756 -111.002305 210 9909ft 117kts
20-Nov-20 13:16 34.749939 -111.022552 211 9906ft 116kts
20-Nov-20 13:17 34.722157 -111.042748 211 9905ft 116kts
20-Nov-20 13:18 34.694563 -111.062803 211 9904ft 115kts
20-Nov-20 13:19 34.667012 -111.082801 211 9906ft 115kts
20-Nov-20 13:20 34.639388 -111.102827 210 9907ft 115kts
20-Nov-20 13:21 34.611586 -111.123008 211 9909ft 116kts
20-Nov-20 13:22 34.583752 -111.143175 211 9906ft 116kts
20-Nov-20 13:23 34.555847 -111.163385 210 9908ft 117kts
20-Nov-20 13:24 34.527831 -111.183657 210 9907ft 117kts
20-Nov-20 13:25 34.499681 -111.204013 210 9906ft 117kts
20-Nov-20 13:26 34.471436 -111.224441 210 9907ft 118kts
20-Nov-20 13:27 34.443056 -111.244924 210 9906ft 118kts
20-Nov-20 13:27 34.419335 -111.262043 210 9912ft 119kts
20-Nov-20 13:29 34.385965 -111.286123 210 9908ft 120kts
20-Nov-20 13:29 34.362063 -111.303344 210 9906ft 120kts
20-Nov-20 13:31 34.328612 -111.327434 209 9908ft 120kts
20-Nov-20 13:31 34.304631 -111.344702 210 9907ft 120kts
20-Nov-20 13:32 34.275767 -111.365413 209 9907ft 120kts
20-Nov-20 13:33 34.246942 -111.386185 210 9908ft 121kts
20-Nov-20 13:34 34.218002 -111.406951 209 9904ft 120kts
20-Nov-20 13:35 34.189136 -111.427698 210 9907ft 120kts
20-Nov-20 13:36 34.160313 -111.448373 210 9908ft 120kts
20-Nov-20 13:37 34.131479 -111.469056 210 9910ft 120kts
20-Nov-20 13:38 34.103391 -111.489174 210 10013ft 116kts
20-Nov-20 13:39 34.075601 -111.509067 210 10124ft 116kts
20-Nov-20 13:40 34.047011 -111.527015 178 10147ft 118kts
20-Nov-20 13:41 34.014061 -111.521524 172 10139ft 118kts
20-Nov-20 13:42 33.982822 -111.510370 153 10161ft 120kts
20-Nov-20 13:43 33.953311 -111.491163 156 10146ft 120kts
20-Nov-20 13:44 33.940436 -111.520268 264 10157ft 119kts
20-Nov-20 13:45 33.924041 -111.545842 185 10150ft 118kts
20-Nov-20 13:46 33.916229 -111.580134 269 10150ft 120kts
20-Nov-20 13:47 33.899862 -111.609904 221 10136ft 118kts
20-Nov-20 13:48 33.873691 -111.633425 216 10130ft 116kts
20-Nov-20 13:49 33.847596 -111.656504 216 10132ft 116kts
20-Nov-20 13:50 33.827454 -111.682344 217 10133ft 110kts
20-Nov-20 13:51 33.801963 -111.704841 217 10151ft 114kts
20-Nov-20 13:52 33.775005 -111.728992 218 9800ft 127kts
20-Nov-20 13:53 33.746611 -111.755213 218 9292ft 129kts
20-Nov-20 13:54 33.718351 -111.782148 219 8789ft 129kts
20-Nov-20 13:55 33.690405 -111.809627 220 8288ft 130kts
20-Nov-20 13:56 33.662457 -111.837934 221 7797ft 132kts
20-Nov-20 13:57 33.634581 -111.867072 221 7293ft 133kts
20-Nov-20 13:58 33.607465 -111.896205 222 6979ft 129kts
20-Nov-20 13:59 33.582014 -111.924065 222 6981ft 122kts
20-Nov-20 14:00 33.557953 -111.952438 250 6978ft 121kts
20-Nov-20 14:01 33.550314 -111.991692 257 6979ft 120kts
20-Nov-20 14:02 33.542270 -112.034382 257 6260ft 141kts
20-Nov-20 14:03 33.534545 -112.075465 257 5567ft 138kts
20-Nov-20 14:04 33.526312 -112.118378 257 4995ft 138kts
20-Nov-20 14:05 33.518487 -112.158040 257 4469ft 140kts
20-Nov-20 14:06 33.509483 -112.201773 257 4018ft 135kts
20-Nov-20 14:07 33.500607 -112.244253 255 3969ft 126kts
20-Nov-20 14:08 33.472096 -112.267611 205 3893ft 130kts
20-Nov-20 14:09 33.440587 -112.271387 125 3922ft 126kts
20-Nov-20 14:10 33.428448 -112.233802 90 3963ft 124kts
20-Nov-20 14:11 33.429107 -112.192416 85 3865ft 130kts
20-Nov-20 14:12 33.428842 -112.146355 90 2913ft 137kts
20-Nov-20 14:13 33.428762 -112.107836 89 2476ft 124kts
20-Nov-20 14:14 33.428818 -112.072054 90 1935ft 105kts
20-Nov-20 14:15 33.428800 -112.038510 88 1357ft 81kts
20-Nov-20 14:16 33.428551 -112.016527 162 1123ft 13kts
20-Nov-20 14:17 33.427978 -112.016583 178 1124ft 0kts
20-Nov-20 14:18 33.426819 -112.018217 105 1118ft 13kts
20-Nov-20 14:19 33.427264 -112.017564 276 1121ft 0kts
20-Nov-20 14:20 33.427264 -112.017564 276 1121ft 0kts
20-Nov-20 14:21 33.427264 -112.017564 276 1121ft 0kts
20-Nov-20 14:22 33.427264 -112.017564 276 1121ft 0kts

Navigation Log

Ident Type
Flight plan parsing failed, navigation log unavailable